Data for 09/13/2006

Time Sea-Level Adjusted Pressure Absolute Pressure Temperature Relative Humidity Dew Point   
(mb) (inHg) (mb) (inHg) (C) (F) (%) (C) (F)
00:05 1019 30.09 848 25.04 16.4 61.4 26 -3.4 26
00:10 1019 30.09 848 25.04 16.2 61.2 26 -3.1 26.5
00:15 1019 30.09 848 25.04 16 60.9 26 -3.6 25.5
00:20 1019 30.09 848 25.04 16.6 61.9 23 -4.2 24.4
00:25 1019 30.09 848 25.04 16.7 62.1 27 -2.3 27.9
00:30 1019 30.09 848 25.04 17 62.5 24 -3.9 25
00:35 1019 30.09 848 25.04 17.1 62.8 24 -3.6 25.6
00:40 1019 30.09 848 25.04 16.1 61 27 -2.8 26.9
00:45 1019 30.09 848 25.04 15.3 59.5 27 -3.4 25.8
00:50 1019 30.09 848 25.04 15.5 60 26 -4 24.8
00:55 1019 30.09 848 25.04 15.6 60.1 26 -3.9 25.1
01:00 1019 30.09 848 25.04 15.5 59.9 26 -3.8 25.2
01:05 1019 30.09 848 25.04 15.2 59.4 28 -3.2 26.2
01:10 1019 30.09 848 25.04 15.1 59.1 26 -4 24.8
01:15 1019 30.09 848 25.04 15.4 59.8 27 -3.5 25.7
01:20 1019 30.09 848 25.04 15.2 59.3 28 -3.1 26.4
01:25 1019 30.09 848 25.04 15.3 59.5 27 -3.6 25.6
01:30 1019 30.09 848 25.04 15.4 59.6 26 -4 24.8
01:35 1019 30.09 848 25.04 15.6 60.1 30 -1.9 28.6
01:40 1019 30.09 848 25.04 15.8 60.5 25 -4 24.7
01:45 1019 30.09 848 25.04 16.1 61 24 -4.2 24.5
01:50 1019 30.09 848 25.04 16.3 61.3 25 -3.6 25.5
01:55 1019 30.09 848 25.04 16.2 61.2 25 -3.8 25.2
02:00 1019 30.09 848 25.04 16.1 60.9 38 1.7 35.1
02:05 1019 30.09 848 25.04 15 59 30 -2.3 27.8
02:10 1019 30.09 848 25.04 14.2 57.5 31 -2.6 27.4
02:15 1019 30.09 848 25.04 14.4 57.9 28 -3.8 25.2
02:20 1019 30.09 848 25.04 15.2 59.4 27 -3.6 25.6
02:25 1019 30.09 848 25.04 15.4 59.8 28 -3 26.5
02:30 1019 30.09 848 25.04 15.4 59.7 27 -3.4 25.9
02:35 1019 30.09 848 25.04 15.4 59.8 26 -3.8 25.2
02:40 1019 30.09 848 25.04 15.3 59.5 27 -3.5 25.8
02:45 1019 30.09 848 25.04 15.4 59.7 27 -3.7 25.4
02:50 1019 30.09 848 25.04 15 59 27 -3.6 25.4
02:55 1019 30.09 848 25.04 15 59 30 -2.5 27.6
03:00 1019 30.09 848 25.04 13.9 57 32 -2.5 27.5
03:05 1019 30.09 848 25.04 13.9 57 29 -3.6 25.6
03:10 1019 30.09 848 25.04 14.3 57.7 28 -4.1 24.6
03:15 1018 30.06 848 25.04 15.1 59.2 28 -3.4 25.8
03:20 1018 30.06 848 25.04 14.8 58.6 28 -3.5 25.8
03:25 1018 30.06 848 25.04 14.6 58.4 28 -3.8 25.2
03:30 1018 30.06 848 25.04 14.7 58.5 28 -3.5 25.7
03:35 1018 30.06 847 25.01 14.3 57.7 29 -3.3 26.1
03:40 1018 30.06 847 25.01 14.4 57.9 28 -3.7 25.4
03:45 1018 30.06 847 25.01 14.3 57.7 30 -3.2 26.2
03:50 1018 30.06 847 25.01 14.3 57.8 28 -3.7 25.4
03:55 1018 30.06 847 25.01 14.7 58.4 28 -3.6 25.6
04:00 1018 30.06 847 25.01 14.7 58.4 28 -3.6 25.6
04:05 1018 30.06 847 25.01 14.8 58.7 27 -3.7 25.4
04:10 1018 30.06 847 25.01 14.9 58.7 28 -3.5 25.7
04:15 1018 30.06 847 25.01 14.3 57.8 30 -3.1 26.5
04:20 1018 30.06 847 25.01 14 57.1 30 -3.1 26.4
04:25 1018 30.06 847 25.01 13.7 56.7 31 -3 26.6
04:30 1018 30.06 847 25.01 13.5 56.4 31 -3.3 26
04:35 1018 30.06 847 25.01 13.9 57 29 -3.6 25.5
04:40 1018 30.06 847 25.01 14.1 57.4 30 -3.3 26.1
04:45 1018 30.06 847 25.01 13.9 57 31 -3 26.6
04:50 1018 30.06 847 25.01 13.6 56.5 31 -3.2 26.2
04:55 1018 30.06 847 25.01 13.9 57 29 -3.7 25.4
05:00 1018 30.06 847 25.01 14.4 57.8 29 -3.3 26
05:05 1018 30.06 847 25.01 14.5 58.1 29 -3.4 25.9
05:10 1018 30.06 847 25.01 14.6 58.2 29 -3.3 26.1
05:15 1018 30.06 847 25.01 14.7 58.4 29 -2.9 26.7
05:20 1018 30.06 847 25.01 14.5 58.1 31 -2.3 27.8
05:25 1018 30.06 847 25.01 14.2 57.5 33 -1.8 28.8
05:30 1018 30.06 847 25.01 13.9 57 33 -2.2 28
05:35 1018 30.06 847 25.01 13.6 56.5 34 -1.8 28.8
05:40 1017 30.03 847 25.01 13.4 56 35 -1.6 29.1
05:45 1017 30.03 847 25.01 12.8 55 37 -1.5 29.3
05:50 1017 30.03 847 25.01 12.6 54.6 36 -1.9 28.5
05:55 1017 30.03 846 24.98 13 55.5 35 -2.2 28.1
06:00 1017 30.03 846 24.98 13.7 56.6 33 -2.3 27.9
06:05 1017 30.03 846 24.98 13.5 56.4 35 -1.5 29.2
06:10 1017 30.03 846 24.98 12.7 54.8 38 -1.4 29.6
06:15 1017 30.03 846 24.98 12.5 54.5 35 -2.4 27.6
06:20 1017 30.03 846 24.98 12.3 54.2 39 -1.3 29.6
06:25 1017 30.03 846 24.98 11.9 53.5 37 -2.1 28.2
06:30 1017 30.03 846 24.98 12.3 54.2 36 -2.3 27.8
06:35 1017 30.03 846 24.98 12.4 54.4 35 -2.5 27.6
06:40 1017 30.03 846 24.98 12.9 55.2 33 -2.9 26.8
06:45 1017 30.03 846 24.98 13.2 55.7 33 -2.8 27
06:50 1017 30.03 846 24.98 12.8 55.1 34 -2.6 27.3
06:55 1017 30.03 846 24.98 12.8 55 33 -2.9 26.9
07:00 1017 30.03 846 24.98 13.1 55.5 33 -2.8 26.9
07:05 1017 30.03 846 24.98 13.1 55.6 33 -2.7 27.1
07:10 1017 30.03 846 24.98 13.1 55.6 33 -2.8 26.9
07:15 1017 30.03 846 24.98 13.1 55.6 33 -2.6 27.3
07:20 1017 30.03 846 24.98 12.9 55.3 34 -2.4 27.7
07:25 1017 30.03 846 24.98 12.5 54.6 35 -2.4 27.8
07:30 1017 30.03 846 24.98 12 53.7 36 -2.5 27.6
07:35 1017 30.03 846 24.98 12.1 53.8 37 -2.2 28.1
07:40 1017 30.03 846 24.98 11.8 53.2 38 -2.2 28.1
07:45 1017 30.03 846 24.98 11.8 53.2 38 -2.1 28.2
07:50 1017 30.03 846 24.98 12.2 54 36 -2.3 27.9
07:55 1017 30.03 846 24.98 12.7 54.9 34 -2.7 27.1
08:00 1017 30.03 846 24.98 13.2 55.8 32 -3.2 26.2
08:05 1016 30 846 24.98 13.8 56.8 35 -1.2 29.8
08:10 1017 30.03 846 24.98 13.5 56.3 40 0.1 32.3
08:15 1016 30 846 24.98 12.8 55 40 -0.4 31.3
08:20 1016 30 845 24.95 12.6 54.8 39 -1 30.3
08:25 1016 30 845 24.95 12.9 55.2 42 0.3 32.6
08:30 1016 30 845 24.95 12.7 54.9 44 0.9 33.6
08:35 1016 30 845 24.95 12.6 54.7 40 -0.5 31.1
08:40 1016 30 845 24.95 13.2 55.8 34 -2.1 28.2
08:45 1016 30 845 24.95 14 57.1 33 -2 28.4
08:50 1016 30 845 24.95 14.5 58 34 -1.1 30
08:55 1016 30 845 24.95 14.7 58.4 34 -1.1 30.1
09:00 1016 30 845 24.95 14.7 58.5 35 -0.6 31
09:05 1016 30 845 24.95 15.3 59.5 31 -1.8 28.8
09:10 1016 30 845 24.95 15.7 60.2 32 -0.9 30.4
09:15 1016 30 845 24.95 16 60.7 37 1.3 34.3
09:20 1016 30 845 24.95 15.9 60.6 34 0.3 32.5
09:25 1015 29.97 845 24.95 16.1 61 34 0.3 32.5
09:30 1015 29.97 845 24.95 16.9 62.3 32 0.1 32.1
09:35 1015 29.97 845 24.95 17.5 63.4 32 0.9 33.7
09:40 1015 29.97 845 24.95 17.7 63.9 30 0 32.1
09:45 1015 29.97 844 24.92 18.4 65.2 29 0.3 32.5
09:50 1015 29.97 844 24.92 19.4 66.9 28 0.4 32.7
09:55 1015 29.97 844 24.92 19.9 67.9 26 -0 32
10:00 1015 29.97 844 24.92 20.1 68.2 27 0.9 33.6
10:05 1015 29.97 844 24.92 19.8 67.7 27 0.2 32.4
10:10 1015 29.97 844 24.92 20.2 68.3 25 -0.4 31.3
10:15 1015 29.97 844 24.92 19.7 67.5 26 -0.1 31.7
10:20 1015 29.97 844 24.92 19.9 67.8 25 -0.6 31
10:25 1015 29.97 844 24.92 20.7 69.3 26 1 33.7
10:30 1015 29.97 844 24.92 21.3 70.3 25 0.7 33.2
10:35 1015 29.97 844 24.92 21.5 70.8 26 1.2 34.1
10:40 1015 29.97 844 24.92 20.5 68.8 26 0.6 33.1
10:45 1015 29.97 844 24.92 20.8 69.5 27 1.2 34.1
10:50 1015 29.97 844 24.92 21 69.8 30 3.1 37.5
10:55 1015 29.97 844 24.92 20.9 69.6 28 2 35.6
11:00 1015 29.97 844 24.92 20.5 68.8 30 2.4 36.4
11:05 1015 29.97 844 24.92 20.3 68.6 29 2 35.5
11:10 1015 29.97 844 24.92 20.2 68.4 29 1.7 35.1
11:15 1015 29.97 844 24.92 20.3 68.6 28 1.4 34.6
11:20 1015 29.97 844 24.92 21.1 69.9 26 1.3 34.3
11:25 1015 29.97 844 24.92 21.9 71.5 26 1.7 35
11:30 1015 29.97 844 24.92 21.1 70 27 1.6 34.9
11:35 1015 29.97 844 24.92 21.8 71.2 26 1.5 34.8
11:40 1014 29.94 844 24.92 22.5 72.6 24 1.4 34.6
11:45 1014 29.94 844 24.92 23.2 73.8 24 2 35.6
11:50 1014 29.94 843 24.89 23.7 74.7 22 1.1 34
11:55 1014 29.94 843 24.89 23.4 74.1 23 1.3 34.4
12:00 1014 29.94 843 24.89 23.5 74.2 23 1.3 34.4
12:05 1014 29.94 843 24.89 24 75.1 21 0.4 32.7
12:10 1014 29.94 843 24.89 24.2 75.6 21 0.9 33.5
12:15 1014 29.94 843 24.89 24.6 76.2 20 0.6 33
12:20 1014 29.94 843 24.89 24.8 76.6 18 -0.7 30.8
12:25 1013 29.91 843 24.89 24.9 76.9 20 0.4 32.7
12:30 1013 29.91 843 24.89 25 77 19 -0 31.9
12:35 1013 29.91 842 24.86 24.9 76.8 18 -0.7 30.7
12:40 1013 29.91 842 24.86 24.5 76.1 18 -1.1 30.1
12:45 1013 29.91 842 24.86 24.7 76.4 18 -0.6 30.8
12:50 1013 29.91 842 24.86 25.2 77.4 19 0.2 32.4
12:55 1013 29.91 842 24.86 26.3 79.3 16 -1.3 29.6
13:00 1013 29.91 842 24.86 26.2 79.2 17 -0.4 31.3
13:05 1013 29.91 842 24.86 26.6 79.9 17 -0.1 31.9
13:10 1012 29.88 842 24.86 26.6 79.9 16 -1.1 30.1
13:15 1012 29.88 842 24.86 27.1 80.8 16 -0.6 31
13:20 1012 29.88 842 24.86 27 80.6 16 -0.8 30.6
13:25 1012 29.88 841 24.83 26.9 80.3 16 -1.1 30
13:30 1012 29.88 841 24.83 27.1 80.7 16 -0.7 30.7
13:35 1012 29.88 841 24.83 26.8 80.3 14 -2.2 28.1
13:40 1012 29.88 841 24.83 27.2 80.9 15 -1.5 29.4
13:45 1012 29.88 841 24.83 27.5 81.5 15 -1.5 29.2
13:50 1012 29.88 841 24.83 27.5 81.4 15 -1 30.2
13:55 1012 29.88 841 24.83 27.1 80.7 15 -1.7 29
14:00 1012 29.88 841 24.83 27.2 80.9 15 -1.6 29.1
14:05 1011 29.85 841 24.83 27.5 81.5 15 -1.3 29.6
14:10 1011 29.85 841 24.83 27.4 81.3 15 -1.6 29.1
14:15 1011 29.85 840 24.81 27 80.6 15 -1.5 29.4
14:20 1011 29.85 840 24.81 27.2 81 15 -1.6 29.2
14:25 1011 29.85 840 24.81 27.4 81.3 15 -1.3 29.7
14:30 1011 29.85 840 24.81 27.7 81.8 14 -1.9 28.5
14:35 1011 29.85 840 24.81 28.2 82.7 13 -2.4 27.7
14:40 1011 29.85 840 24.81 28.4 83.2 13 -1.9 28.6
14:45 1011 29.85 840 24.81 28.3 83 14 -1.7 29
14:50 1011 29.85 840 24.81 28 82.3 14 -1.8 28.8
14:55 1011 29.85 840 24.81 27.7 81.9 13 -2.5 27.4
15:00 1011 29.85 840 24.81 28 82.3 14 -1.6 29.1
15:05 1010 29.83 840 24.81 28.4 83.1 13 -2.8 26.9
15:10 1010 29.83 840 24.81 28.8 83.8 13 -1.8 28.8
15:15 1010 29.83 840 24.81 28.6 83.4 13 -2.2 28
15:20 1010 29.83 839 24.78 28.6 83.5 12 -3 26.7
15:25 1010 29.83 839 24.78 29 84.3 11 -3.5 25.7
15:30 1010 29.83 839 24.78 29.2 84.5 11 -4.5 24
15:35 1010 29.83 839 24.78 29.3 84.8 11 -3.9 25
15:40 1010 29.83 839 24.78 29.2 84.6 11 -4.1 24.6
15:45 1010 29.83 839 24.78 29.1 84.3 10 -4.8 23.3
15:50 1010 29.83 839 24.78 29.1 84.3 10 -4.9 23.2
15:55 1010 29.83 839 24.78 29.1 84.3 11 -4.4 24.1
16:00 1009 29.8 839 24.78 29 84.2 11 -4.4 24.1
16:05 1009 29.8 839 24.78 29 84.2 11 -4 24.8
16:10 1009 29.8 838 24.75 29.1 84.4 11 -4.1 24.5
16:15 1009 29.8 838 24.75 29.1 84.3 11 -4.4 24.1
16:20 1009 29.8 838 24.75 28.9 83.9 11 -4.6 23.8
16:25 1009 29.8 838 24.75 29.1 84.4 11 -4.6 23.8
16:30 1009 29.8 838 24.75 29 84.3 11 -4.7 23.6
16:35 1009 29.8 838 24.75 28.9 84.1 11 -4.3 24.2
16:40 1009 29.8 838 24.75 29 84.2 11 -4.4 24
16:45 1009 29.8 838 24.75 29.1 84.3 11 -4 24.8
16:50 1009 29.8 838 24.75 29 84.2 11 -4 24.8
16:55 1009 29.8 838 24.75 29.1 84.3 11 -4.7 23.6
17:00 1009 29.8 838 24.75 29 84.1 11 -4.6 23.8
17:05 1009 29.8 838 24.75 29 84.2 11 -4.5 23.8
17:10 1009 29.8 838 24.75 29.2 84.5 11 -3.7 25.3
17:15 1009 29.8 838 24.75 29.3 84.7 11 -4.1 24.6
17:20 1008 29.77 838 24.75 29.1 84.5 11 -4.1 24.6
17:25 1008 29.77 838 24.75 29 84.2 11 -4.3 24.3
17:30 1008 29.77 838 24.75 29 84.1 11 -3.9 25
17:35 1008 29.77 837 24.72 28.9 84 11 -4.3 24.3
17:40 1008 29.77 837 24.72 28.8 83.8 11 -4.5 23.9
17:45 1008 29.77 837 24.72 28.7 83.6 11 -4.5 23.9
17:50 1008 29.77 837 24.72 28.5 83.3 11 -4.8 23.3
17:55 1008 29.77 837 24.72 28.3 82.9 11 -4.4 24
18:00 1008 29.77 837 24.72 28 82.5 11 -4.6 23.7
18:05 1008 29.77 837 24.72 27.8 82.1 12 -3.9 25
18:10 1008 29.77 837 24.72 27.5 81.5 13 -3.5 25.6
18:15 1008 29.77 837 24.72 27.3 81.2 12 -4.6 23.6
18:20 1008 29.77 837 24.72 27.1 80.8 12 -4.5 23.8
18:25 1008 29.77 837 24.72 26.9 80.5 12 -4.1 24.6
18:30 1008 29.77 837 24.72 26.7 80.1 13 -3.8 25.2
18:35 1008 29.77 837 24.72 26.5 79.7 13 -4 24.8
18:40 1008 29.77 837 24.72 26.1 79 13 -3.7 25.3
18:45 1008 29.77 837 24.72 26 78.7 14 -3.7 25.3
18:50 1008 29.77 837 24.72 25.8 78.4 13 -4.3 24.3
18:55 1008 29.77 837 24.72 25.7 78.3 13 -5 23.1
19:00 1008 29.77 837 24.72 25.6 78.1 12 -5.3 22.4
19:05 1008 29.77 837 24.72 25.5 77.8 13 -4.6 23.7
19:10 1008 29.77 837 24.72 25.3 77.5 13 -4.5 23.8
19:15 1008 29.77 837 24.72 25.1 77.2 13 -4.7 23.5
19:20 1008 29.77 837 24.72 25 76.9 13 -4.9 23.2
19:25 1008 29.77 837 24.72 24.9 76.8 14 -4.3 24.3
19:30 1008 29.77 837 24.72 24.7 76.5 13 -5.2 22.7
19:35 1008 29.77 837 24.72 24.7 76.4 13 -5.3 22.4
19:40 1008 29.77 837 24.72 24.5 76.2 14 -4.7 23.6
19:45 1008 29.77 837 24.72 24.3 75.8 15 -3.6 25.5
19:50 1008 29.77 837 24.72 24.2 75.5 15 -4.2 24.4
19:55 1008 29.77 837 24.72 24 75.3 15 -4.2 24.4
20:00 1008 29.77 837 24.72 23.7 74.7 15 -4 24.9
20:05 1008 29.77 837 24.72 23.5 74.3 15 -4.1 24.7
20:10 1008 29.77 837 24.72 23.3 74 16 -4 24.8
20:15 1008 29.77 837 24.72 23 73.5 17 -3.1 26.5
20:20 1008 29.77 837 24.72 22.7 72.8 19 -1.7 28.9
20:25 1008 29.77 837 24.72 21.7 71.1 19 -2.7 27.2
20:30 1008 29.77 837 24.72 21.7 71 17 -3.9 25
20:35 1008 29.77 837 24.72 21.8 71.3 19 -2.9 26.7
20:40 1008 29.77 837 24.72 21.8 71.2 19 -2.8 27
20:45 1008 29.77 837 24.72 21.5 70.6 19 -2.9 26.8
20:50 1008 29.77 837 24.72 21.1 69.9 19 -3.3 26.1
20:55 1008 29.77 837 24.72 20.8 69.4 18 -4.3 24.3
21:00 1008 29.77 837 24.72 20.4 68.7 19 -4 24.8
21:05 1008 29.77 837 24.72 19.5 67.1 20 -3.8 25.1
21:10 1008 29.77 838 24.75 19.2 66.6 20 -3.9 25
21:15 1008 29.77 838 24.75 19.3 66.7 19 -4.5 23.9
21:20 1008 29.77 838 24.75 19.3 66.8 20 -4.3 24.2
21:25 1008 29.77 838 24.75 19.1 66.4 20 -4.5 23.9
21:30 1009 29.8 838 24.75 19.1 66.3 20 -4.3 24.3
21:35 1009 29.8 838 24.75 18.3 64.9 22 -3.8 25.1
21:40 1009 29.8 838 24.75 18.2 64.7 21 -4.3 24.2
21:45 1009 29.8 838 24.75 18.4 65 20 -4.7 23.6
21:50 1009 29.8 838 24.75 18.5 65.2 20 -5.1 22.9
21:55 1009 29.8 838 24.75 18.5 65.3 19 -5.4 22.3
22:00 1009 29.8 838 24.75 18.2 64.8 20 -5 23
22:05 1009 29.8 838 24.75 17.9 64.3 20 -5 23
22:10 1009 29.8 838 24.75 17.5 63.4 21 -5.1 22.7
22:15 1009 29.8 838 24.75 17.5 63.5 20 -5.9 21.4
22:20 1009 29.8 838 24.75 17.9 64.2 19 -5.7 21.7
22:25 1009 29.8 838 24.75 18 64.4 19 -5.8 21.5
22:30 1009 29.8 838 24.75 18.2 64.8 18 -6 21.1
22:35 1009 29.8 838 24.75 18.4 65.2 18 -5.9 21.4
22:40 1009 29.8 838 24.75 18.3 64.9 19 -5.9 21.4
22:45 1009 29.8 838 24.75 18 64.4 19 -5.6 21.9
22:50 1009 29.8 838 24.75 17.6 63.6 21 -5 23.1
22:55 1009 29.8 838 24.75 17 62.7 22 -4.9 23.2
23:00 1009 29.8 838 24.75 16.4 61.5 23 -4.8 23.3
23:05 1009 29.8 838 24.75 16.3 61.3 23 -4.8 23.3
23:10 1009 29.8 838 24.75 15.8 60.5 25 -4.3 24.3
23:15 1009 29.8 838 24.75 15.1 59.2 26 -4.2 24.4
23:20 1009 29.8 838 24.75 15.4 59.7 26 -4.1 24.7
23:25 1009 29.8 838 24.75 16.1 60.9 25 -3.7 25.3
23:30 1009 29.8 838 24.75 16.2 61.1 25 -3.5 25.6
23:35 1009 29.8 838 24.75 16.1 61 26 -3.1 26.4
23:40 1009 29.8 838 24.75 15.8 60.5 27 -3.3 26.1
23:45 1009 29.8 838 24.75 15.4 59.7 28 -3.1 26.3
23:50 1009 29.8 838 24.75 15.1 59.3 27 -3.6 25.5
23:55 1009 29.8 838 24.75 15.1 59.2 28 -3.4 25.9
24:00 1009 29.8 838 24.75 14.9 58.9 30 -2.4 27.8